Stella, North Carolina
Current Conditions -  °F | °C
As of 5:57 AM on Monday 22 Dec 2014 (Local Time) from KNJM Reporting Station
Light Rain Light Rain  
Wind Chill: 44°   Ceiling: 300
Heat Index: 49°   Visibility: 4mi
Dew Point: 47°   Wind: 12mph
Humidity: 93%   Direction: 20°NNE
Pressure: 30.06"   Gusts: 21mph
Location:  34.77°N, 77.15°W
Report Text: KNJM 221057Z AUTO 02010G18KT 4SM -RA BR OVC003 09/08 A3006 RMK AO2 RAB56 SLP184 P0000 T00940083
Loading
Personal Weather Stations






























Interactive Weather Map New forecast layout! Learn more

10-Day Weather Forecast

Advertisements
Track Severe Weather on mobile